Time;durP1;ratioP1;P1;durP2;ratioP2;P2;SDS_P1;SDS_P2;PMS_P1;PMS_P2;Temp;Humidity;BMP_temperature;BMP_pressure;BME280_temperature;BME280_humidity;BME280_pressure;Samples;Min_cycle;Max_cycle;Signal;HPM_P1;HPM_P2
2022/09/20 00:01:14;;;;;;;5.30;2.38;;;8.70;99.90;;;;;;5053963;28;20392;-53
2022/09/20 00:03:42;;;;;;;5.00;2.60;;;8.80;99.90;;;;;;5053922;28;20107;-53
2022/09/20 00:06:11;;;;;;;4.78;2.75;;;8.80;99.90;;;;;;5053957;28;20023;-55
2022/09/20 00:08:38;;;;;;;6.75;2.85;;;8.70;99.90;;;;;;5051999;28;20040;-52
2022/09/20 00:11:06;;;;;;;6.50;2.88;;;8.70;99.90;;;;;;5052165;28;20052;-53
2022/09/20 00:13:33;;;;;;;5.90;3.17;;;8.70;99.90;;;;;;5053342;28;20420;-54
2022/09/20 00:16:03;;;;;;;6.90;2.95;;;8.70;99.90;;;;;;5053717;28;20360;-53
2022/09/20 00:18:28;;;;;;;5.55;2.97;;;8.70;99.90;;;;;;5053645;28;20029;-52
2022/09/20 00:20:54;;;;;;;4.43;2.78;;;8.60;99.90;;;;;;5053534;28;20036;-55
2022/09/20 00:23:20;;;;;;;5.63;3.00;;;8.80;99.90;;;;;;5053553;28;20033;-55
2022/09/20 00:25:54;;;;;;;8.10;2.85;;;8.80;99.90;;;;;;5053476;28;20021;-53
2022/09/20 00:28:20;;;;;;;4.15;2.65;;;8.90;99.90;;;;;;5053409;28;20108;-53
2022/09/20 00:30:45;;;;;;;10.68;2.50;;;8.90;99.90;;;;;;5053210;28;20170;-54
2022/09/20 00:33:11;;;;;;;2.83;2.45;;;8.90;99.90;;;;;;5053325;28;20032;-54
2022/09/20 00:35:37;;;;;;;6.18;2.38;;;8.90;99.90;;;;;;5052649;28;20021;-52
2022/09/20 00:38:02;;;;;;;9.00;2.70;;;8.90;99.90;;;;;;5053350;28;20044;-55
2022/09/20 00:40:29;;;;;;;3.78;2.40;;;9.00;99.90;;;;;;5053303;28;20645;-55
2022/09/20 00:42:54;;;;;;;6.18;2.67;;;9.00;99.90;;;;;;5053004;28;20044;-54
2022/09/20 00:45:23;;;;;;;5.90;2.63;;;8.90;99.90;;;;;;5053247;28;20021;-53
2022/09/20 00:47:58;;;;;;;4.25;2.72;;;9.00;99.90;;;;;;5053034;28;20021;-53
2022/09/20 00:50:43;;;;;;;3.35;2.70;;;8.90;99.90;;;;;;5053041;28;20032;-54
2022/09/20 00:53:15;;;;;;;5.55;2.90;;;8.90;99.90;;;;;;5052982;28;20024;-52
2022/09/20 00:56:07;;;;;;;5.70;2.33;;;8.80;99.90;;;;;;5052987;28;20025;-52
2022/09/20 00:58:38;;;;;;;3.95;2.63;;;8.80;99.90;;;;;;5052203;28;20029;-53
2022/09/20 01:01:05;;;;;;;6.40;2.40;;;8.90;99.90;;;;;;5052953;28;20028;-52
2022/09/20 01:03:34;;;;;;;2.83;2.30;;;8.90;99.90;;;;;;5052694;28;20108;-53
2022/09/20 01:06:05;;;;;;;9.25;3.30;;;8.90;99.90;;;;;;5052713;28;20028;-56
2022/09/20 01:08:31;;;;;;;7.93;3.47;;;8.80;99.90;;;;;;5052631;28;20136;-55
2022/09/20 01:10:57;;;;;;;5.90;2.47;;;8.90;99.90;;;;;;5052691;28;20033;-54
2022/09/20 01:13:23;;;;;;;9.05;3.13;;;8.90;99.90;;;;;;5052651;28;20021;-52
2022/09/20 01:15:50;;;;;;;2.58;1.95;;;8.80;99.90;;;;;;5052376;28;20079;-54
2022/09/20 01:18:17;;;;;;;3.17;2.38;;;8.90;99.90;;;;;;5052463;28;20027;-52
2022/09/20 01:20:44;;;;;;;4.43;2.55;;;8.90;99.90;;;;;;5052280;28;20032;-53
2022/09/20 01:23:30;;;;;;;7.65;2.72;;;8.80;99.90;;;;;;5052417;28;20048;-52
2022/09/20 01:26:15;;;;;;;10.10;2.80;;;8.90;99.90;;;;;;5052211;28;20037;-53
2022/09/20 01:28:46;;;;;;;8.73;2.58;;;8.90;99.90;;;;;;5052139;28;20070;-52
2022/09/20 01:31:34;;;;;;;3.65;2.63;;;8.90;99.90;;;;;;5052353;28;20107;-52
2022/09/20 01:34:07;;;;;;;4.30;2.47;;;8.90;99.90;;;;;;5052232;28;20025;-52
2022/09/20 01:36:43;;;;;;;3.35;2.60;;;8.90;99.90;;;;;;5052090;28;20021;-52
2022/09/20 01:39:23;;;;;;;7.55;3.20;;;8.80;99.90;;;;;;5052164;28;20032;-52
2022/09/20 01:41:53;;;;;;;6.40;2.42;;;8.80;99.90;;;;;;5052016;28;20029;-52
2022/09/20 01:45:04;;;;;;;4.40;2.70;;;8.80;99.90;;;;;;5050963;28;20032;-52
2022/09/20 01:48:07;;;;;;;4.05;2.35;;;8.70;99.90;;;;;;5050169;28;20041;-54
2022/09/20 01:50:57;;;;;;;6.53;2.17;;;8.70;99.90;;;;;;5051623;28;20032;-51
2022/09/20 01:53:58;;;;;;;12.25;2.65;;;8.80;99.90;;;;;;5051927;28;20028;-53
2022/09/20 01:56:42;;;;;;;4.45;2.38;;;8.80;99.90;;;;;;5051417;28;20396;-52
2022/09/20 01:59:16;;;;;;;2.20;2.00;;;8.90;99.90;;;;;;5051836;28;20371;-55
2022/09/20 02:01:50;;;;;;;3.55;2.00;;;8.90;99.90;;;;;;5051663;28;20029;-54
2022/09/20 02:04:41;;;;;;;5.05;2.50;;;9.00;99.90;;;;;;5051581;28;20024;-51
2022/09/20 02:07:28;;;;;;;5.70;2.80;;;8.90;99.90;;;;;;5051633;28;20716;-52
2022/09/20 02:10:50;;;;;;;6.22;2.67;;;8.80;99.90;;;;;;5051388;28;20124;-54
2022/09/20 02:13:42;;;;;;;2.28;2.05;;;8.80;99.90;;;;;;5048954;28;20032;-54
2022/09/20 02:16:14;;;;;;;3.35;2.38;;;8.70;99.90;;;;;;5049040;28;20028;-51
2022/09/20 02:19:00;;;;;;;7.68;2.65;;;8.70;99.90;;;;;;5050497;28;20044;-54
2022/09/20 02:21:53;;;;;;;3.30;2.55;;;8.70;99.90;;;;;;5051647;28;20025;-54
2022/09/20 02:24:33;;;;;;;3.30;2.63;;;8.60;99.90;;;;;;5051518;28;20052;-53
2022/09/20 02:27:16;;;;;;;3.95;2.28;;;8.70;99.90;;;;;;5051444;28;20441;-53
2022/09/20 02:30:03;;;;;;;2.75;2.35;;;8.70;99.90;;;;;;5051273;28;20023;-55
2022/09/20 02:32:44;;;;;;;4.03;3.28;;;8.70;99.90;;;;;;5051472;28;20043;-56
2022/09/20 02:35:48;;;;;;;7.85;2.95;;;8.60;99.90;;;;;;5051344;28;20087;-54
2022/09/20 02:38:31;;;;;;;8.05;6.18;;;8.60;99.90;;;;;;5050211;28;20108;-55
2022/09/20 02:41:45;;;;;;;4.10;2.80;;;8.50;99.90;;;;;;5051263;28;20032;-52
2022/09/20 02:44:23;;;;;;;4.85;3.67;;;8.60;99.90;;;;;;5051088;28;20364;-54
2022/09/20 02:47:12;;;;;;;5.43;4.35;;;8.50;99.90;;;;;;5051182;28;20094;-54
2022/09/20 02:49:56;;;;;;;8.55;3.60;;;8.50;99.90;;;;;;5051156;28;20104;-52
2022/09/20 02:52:21;;;;;;;;;;;8.50;99.90;;;;;;5051725;28;20021;-55
2022/09/20 02:55:24;;;;;;;6.75;3.63;;;8.50;99.90;;;;;;5051181;28;20291;-51
2022/09/20 02:58:20;;;;;;;4.88;3.00;;;8.50;99.90;;;;;;5052466;28;20506;-53
2022/09/20 03:01:24;;;;;;;3.45;3.00;;;8.60;99.90;;;;;;5055299;28;20380;-53
2022/09/20 03:04:22;;;;;;;5.78;3.60;;;8.50;99.90;;;;;;5054279;28;20040;-54
2022/09/20 03:06:50;;;;;;;5.13;2.63;;;8.50;99.90;;;;;;5054698;28;20128;-53
2022/09/20 03:09:29;;;;;;;6.80;2.42;;;8.50;99.90;;;;;;5054886;28;20039;-51
2022/09/20 03:12:37;;;;;;;5.43;2.97;;;8.50;99.90;;;;;;5054960;28;20032;-54
2022/09/20 03:15:08;;;;;;;2.40;2.20;;;8.60;99.90;;;;;;5054861;28;20059;-54
2022/09/20 03:17:52;;;;;;;4.55;2.40;;;8.60;99.90;;;;;;5054875;28;20464;-52
2022/09/20 03:20:46;;;;;;;8.40;3.58;;;8.60;99.90;;;;;;5054869;28;20032;-51
2022/09/20 03:23:42;;;;;;;2.95;2.65;;;8.60;99.90;;;;;;5054717;28;20111;-52
2022/09/20 03:26:26;;;;;;;5.97;3.80;;;8.60;99.90;;;;;;5054622;28;20025;-52
2022/09/20 03:29:03;;;;;;;2.63;2.40;;;8.60;99.90;;;;;;5054336;28;20162;-53
2022/09/20 03:31:54;;;;;;;4.70;2.90;;;8.60;99.90;;;;;;5054568;28;20322;-52
2022/09/20 03:34:46;;;;;;;5.57;2.38;;;8.50;99.90;;;;;;5054551;28;20013;-51
2022/09/20 03:37:31;;;;;;;3.72;3.17;;;8.60;99.90;;;;;;5053240;28;20037;-54
2022/09/20 03:40:17;;;;;;;4.72;2.72;;;8.60;99.90;;;;;;5054349;28;20021;-55
2022/09/20 03:42:48;;;;;;;5.15;2.65;;;8.70;99.90;;;;;;5054171;28;20025;-53
2022/09/20 03:45:24;;;;;;;2.97;2.67;;;8.70;99.90;;;;;;5054018;28;20052;-53
2022/09/20 03:48:25;;;;;;;4.07;3.03;;;8.70;99.90;;;;;;5054041;28;20162;-52
2022/09/20 03:50:51;;;;;;;2.95;2.55;;;8.70;99.90;;;;;;5052765;28;20455;-53
2022/09/20 03:53:44;;;;;;;4.10;2.97;;;8.70;99.90;;;;;;5054200;28;20040;-51
2022/09/20 03:56:22;;;;;;;6.55;3.60;;;8.70;99.90;;;;;;5054305;28;20528;-53
2022/09/20 03:59:01;;;;;;;8.75;3.20;;;8.70;99.90;;;;;;5052422;28;20025;-55
2022/09/20 04:01:32;;;;;;;6.03;3.10;;;8.70;99.90;;;;;;5052719;28;20521;-53
2022/09/20 04:04:36;;;;;;;4.47;2.80;;;8.70;99.90;;;;;;5054011;28;20028;-54
2022/09/20 04:07:23;;;;;;;4.22;3.08;;;8.70;99.90;;;;;;5053670;28;20411;-55
2022/09/20 04:10:12;;;;;;;6.13;2.70;;;8.70;99.90;;;;;;5051281;28;20055;-55
2022/09/20 04:13:15;;;;;;;4.70;3.25;;;8.60;99.90;;;;;;5053722;28;20017;-53
2022/09/20 04:16:05;;;;;;;6.40;3.45;;;8.60;99.90;;;;;;5053549;28;20033;-51
2022/09/20 04:18:54;;;;;;;7.72;3.13;;;8.60;99.90;;;;;;5053779;28;20052;-54
2022/09/20 04:21:38;;;;;;;10.43;4.07;;;8.60;99.90;;;;;;5053640;28;20086;-54
2022/09/20 04:24:27;;;;;;;7.30;3.17;;;8.60;99.90;;;;;;5053630;28;20074;-54
2022/09/20 04:27:07;;;;;;;7.82;3.03;;;8.70;99.90;;;;;;5053438;28;20090;-51
2022/09/20 04:29:49;;;;;;;4.82;2.58;;;8.70;99.90;;;;;;5053304;28;20120;-54
2022/09/20 04:32:21;;;;;;;7.85;3.20;;;8.70;99.90;;;;;;5053389;28;20020;-55
2022/09/20 04:38:04;;;;;;;3.83;2.78;;;8.70;99.90;;;;;;5053313;28;20115;-54
2022/09/20 04:40:47;;;;;;;8.73;3.13;;;8.70;99.90;;;;;;5053301;28;20021;-51
2022/09/20 04:43:22;;;;;;;5.30;2.55;;;8.70;99.90;;;;;;5053361;28;20044;-55
2022/09/20 04:46:05;;;;;;;8.20;3.30;;;8.70;99.90;;;;;;5053008;28;20025;-51
2022/09/20 04:48:58;;;;;;;5.40;3.20;;;8.70;99.90;;;;;;5052902;28;20104;-55
2022/09/20 04:51:49;;;;;;;9.75;3.47;;;8.60;99.90;;;;;;5053157;28;20075;-52
2022/09/20 04:54:33;;;;;;;23.17;11.27;;;8.60;99.90;;;;;;5052960;28;20052;-54
2022/09/20 04:57:36;;;;;;;6.70;3.75;;;8.60;99.90;;;;;;5052758;28;20036;-52
2022/09/20 05:00:15;;;;;;;10.77;4.90;;;8.60;99.90;;;;;;5052827;28;20025;-53
2022/09/20 05:03:28;;;;;;;12.73;3.65;;;8.70;99.90;;;;;;5052645;28;20372;-55
2022/09/20 05:06:35;;;;;;;9.70;4.03;;;8.70;99.90;;;;;;5033024;28;20060;-51
2022/09/20 05:09:37;;;;;;;7.03;4.28;;;8.60;99.90;;;;;;5036923;28;20040;-54
2022/09/20 05:12:08;;;;;;;7.30;5.20;;;8.70;99.90;;;;;;5052721;28;20654;-54
2022/09/20 05:15:02;;;;;;;8.23;3.20;;;8.70;99.90;;;;;;5052272;28;20029;-52
2022/09/20 05:17:56;;;;;;;4.07;2.90;;;8.70;99.90;;;;;;5052545;28;20085;-54
2022/09/20 05:20:43;;;;;;;8.10;3.80;;;8.70;99.90;;;;;;5052372;28;20028;-55
2022/09/20 05:23:43;;;;;;;4.00;2.95;;;8.80;99.90;;;;;;5052461;28;20037;-53
2022/09/20 05:26:11;;;;;;;3.10;2.38;;;8.80;99.90;;;;;;5052287;28;20528;-52
2022/09/20 05:28:48;;;;;;;7.80;3.05;;;8.80;99.90;;;;;;5052162;28;20470;-53
2022/09/20 05:31:29;;;;;;;3.90;2.95;;;8.80;99.90;;;;;;5052332;28;20029;-54
2022/09/20 05:34:23;;;;;;;4.72;3.05;;;8.80;99.90;;;;;;5052053;28;20052;-54
2022/09/20 05:37:09;;;;;;;4.80;3.40;;;8.90;99.90;;;;;;5051954;28;20028;-54
2022/09/20 05:40:22;;;;;;;2.90;2.65;;;8.80;99.90;;;;;;5052016;28;20402;-53
2022/09/20 05:43:15;;;;;;;9.65;2.75;;;8.90;99.90;;;;;;5032596;28;20161;-52
2022/09/20 05:46:26;;;;;;;5.75;3.00;;;8.90;99.90;;;;;;5049206;28;20032;-55
2022/09/20 05:48:55;;;;;;;4.53;4.10;;;8.90;99.90;;;;;;5051485;28;20040;-52
2022/09/20 05:51:41;;;;;;;5.97;3.08;;;8.90;99.90;;;;;;5051855;28;20040;-56
2022/09/20 05:54:34;;;;;;;7.45;3.63;;;9.00;99.90;;;;;;5050296;28;20392;-51
2022/09/20 05:57:27;;;;;;;5.90;3.22;;;9.10;99.90;;;;;;5051640;28;20419;-55
2022/09/20 06:00:19;;;;;;;11.00;3.83;;;9.00;99.90;;;;;;5051282;28;20025;-54
2022/09/20 06:02:58;;;;;;;8.82;3.00;;;9.10;99.90;;;;;;5051257;28;20057;-53
2022/09/20 06:05:48;;;;;;;5.93;3.03;;;9.20;99.90;;;;;;5051541;28;20029;-52
2022/09/20 06:09:05;;;;;;;4.65;2.80;;;9.20;99.90;;;;;;5051551;28;20500;-52
2022/09/20 06:11:31;;;;;;;4.95;3.35;;;9.40;99.90;;;;;;5050058;28;20040;-55
2022/09/20 06:14:21;;;;;;;4.55;2.92;;;9.50;99.90;;;;;;5051475;28;20033;-53
2022/09/20 06:17:10;;;;;;;8.98;3.00;;;9.60;99.90;;;;;;5051415;28;20102;-55
2022/09/20 06:19:51;;;;;;;2.90;2.63;;;9.60;99.90;;;;;;5051184;28;20033;-54
2022/09/20 06:22:51;;;;;;;3.58;3.20;;;9.60;99.90;;;;;;5051167;28;20059;-53
2022/09/20 06:25:52;;;;;;;8.10;4.75;;;9.60;99.90;;;;;;5046736;28;20503;-53
2022/09/20 06:28:27;;;;;;;6.93;3.28;;;9.50;99.90;;;;;;5051244;28;20028;-53
2022/09/20 06:31:30;;;;;;;4.32;3.28;;;9.40;99.90;;;;;;5050685;28;20111;-54
2022/09/20 06:34:07;;;;;;;6.00;3.20;;;9.50;99.90;;;;;;5050600;28;20021;-55
2022/09/20 06:42:16;;;;;;;8.38;3.10;;;9.50;99.90;;;;;;5050063;28;20563;-53
2022/09/20 06:44:42;;;;;;;5.85;3.00;;;9.50;99.90;;;;;;5048430;28;20112;-52
2022/09/20 06:47:14;;;;;;;11.90;6.28;;;9.50;99.90;;;;;;5049832;28;20025;-51
2022/09/20 06:49:41;;;;;;;11.02;5.00;;;9.60;99.90;;;;;;5049509;28;20333;-51
2022/09/20 06:52:11;;;;;;;74.25;23.58;;;9.50;99.90;;;;;;5051244;28;20052;-56
2022/09/20 06:54:37;;;;;;;14.07;6.78;;;9.60;99.90;;;;;;5050969;28;20094;-55
2022/09/20 06:57:04;;;;;;;29.15;12.00;;;9.70;99.90;;;;;;5051095;28;20013;-53
2022/09/20 06:59:30;;;;;;;10.85;4.65;;;9.80;99.90;;;;;;5051031;28;20028;-54
2022/09/20 07:01:56;;;;;;;7.60;3.63;;;9.90;99.90;;;;;;5050925;28;20376;-54
2022/09/20 07:04:25;;;;;;;5.65;3.22;;;9.80;99.90;;;;;;5050559;28;20036;-53
2022/09/20 07:06:52;;;;;;;3.40;2.85;;;9.90;99.90;;;;;;5049506;28;20045;-52
2022/09/20 07:09:18;;;;;;;6.25;3.33;;;9.90;99.90;;;;;;5049637;28;20050;-52
2022/09/20 07:11:45;;;;;;;3.45;2.90;;;9.90;99.90;;;;;;5049857;28;20032;-54
2022/09/20 07:14:10;;;;;;;7.03;3.22;;;10.00;99.90;;;;;;5049436;28;20071;-53
2022/09/20 07:16:37;;;;;;;3.72;3.28;;;10.00;99.90;;;;;;5049334;28;20068;-51
2022/09/20 07:19:04;;;;;;;13.85;4.20;;;9.90;99.90;;;;;;5049747;28;20373;-52
2022/09/20 07:21:30;;;;;;;4.28;3.08;;;10.00;99.90;;;;;;5049705;28;20100;-51
2022/09/20 07:23:56;;;;;;;8.13;3.13;;;10.20;99.90;;;;;;5049465;28;20167;-52
2022/09/20 07:26:27;;;;;;;7.00;3.20;;;10.30;99.90;;;;;;5049870;28;20052;-52
2022/09/20 07:28:54;;;;;;;3.17;2.88;;;10.50;99.90;;;;;;5049395;28;20032;-53
2022/09/20 07:31:21;;;;;;;6.45;3.42;;;10.40;99.90;;;;;;5049519;28;20476;-55
2022/09/20 07:33:48;;;;;;;5.25;3.10;;;10.30;99.90;;;;;;5049537;28;20380;-51
2022/09/20 07:36:13;;;;;;;4.22;3.13;;;10.50;99.90;;;;;;5049632;28;20024;-54
2022/09/20 07:38:40;;;;;;;8.82;2.80;;;10.50;99.90;;;;;;5049421;28;20021;-54
2022/09/20 07:41:07;;;;;;;5.60;2.88;;;10.40;99.90;;;;;;5049589;28;20025;-52
2022/09/20 07:43:33;;;;;;;8.63;5.25;;;10.40;99.90;;;;;;5049063;28;20026;-52
2022/09/20 07:45:59;;;;;;;6.20;3.40;;;10.20;99.90;;;;;;5052492;28;20156;-53
2022/09/20 07:48:30;;;;;;;11.23;4.03;;;10.10;99.90;;;;;;5053373;28;20108;-54
2022/09/20 07:51:12;;;;;;;9.93;4.00;;;10.00;99.90;;;;;;5053054;28;20017;-55
2022/09/20 07:53:38;;;;;;;10.38;3.72;;;9.90;99.90;;;;;;5052658;28;20024;-53
2022/09/20 07:56:06;;;;;;;10.93;4.05;;;9.70;99.90;;;;;;5052847;28;20044;-55
2022/09/20 07:58:34;;;;;;;9.75;4.20;;;9.70;99.90;;;;;;5052705;28;20025;-55
2022/09/20 08:01:05;;;;;;;12.50;5.75;;;9.60;99.90;;;;;;5052801;28;20104;-54
2022/09/20 08:03:32;;;;;;;12.90;3.50;;;9.50;99.90;;;;;;5052882;28;20480;-54
2022/09/20 08:06:04;;;;;;;6.20;2.95;;;9.50;99.90;;;;;;5052634;28;20353;-51
2022/09/20 08:08:37;;;;;;;4.43;2.45;;;9.50;99.90;;;;;;5052521;28;20041;-54
2022/09/20 08:11:15;;;;;;;5.88;2.10;;;9.50;99.90;;;;;;5052577;28;20029;-52
2022/09/20 08:13:43;;;;;;;3.50;2.67;;;9.70;99.90;;;;;;5051158;28;20480;-55
2022/09/20 08:16:12;;;;;;;8.77;2.50;;;9.90;99.90;;;;;;5052559;28;20064;-55
2022/09/20 08:18:45;;;;;;;11.07;4.68;;;10.20;99.90;;;;;;5052358;28;20052;-55
2022/09/20 08:21:13;;;;;;;35.97;15.88;;;10.30;99.90;;;;;;5052203;28;20017;-56
2022/09/20 08:23:41;;;;;;;32.05;12.70;;;10.60;99.90;;;;;;5052575;28;20032;-53
2022/09/20 08:26:12;;;;;;;23.50;11.52;;;10.80;99.90;;;;;;5053521;28;20028;-57
2022/09/20 08:28:39;;;;;;;5.72;3.20;;;11.10;99.90;;;;;;5053271;28;20025;-52
2022/09/20 08:31:11;;;;;;;29.75;14.55;;;11.40;99.90;;;;;;5053237;28;20082;-53
2022/09/20 08:33:38;;;;;;;14.55;8.25;;;11.60;99.90;;;;;;5053234;28;20112;-56
2022/09/20 08:36:05;;;;;;;7.13;5.03;;;11.90;99.90;;;;;;5053484;28;20025;-54
2022/09/20 08:38:32;;;;;;;9.13;4.38;;;11.40;99.90;;;;;;5053292;28;20022;-54
2022/09/20 08:41:19;;;;;;;17.67;8.75;;;11.20;99.90;;;;;;5053165;28;20623;-54
2022/09/20 08:43:55;;;;;;;12.35;5.28;;;11.20;99.90;;;;;;5053058;28;20040;-53
2022/09/20 08:46:27;;;;;;;5.22;3.22;;;11.30;99.90;;;;;;5052041;28;20025;-52
2022/09/20 08:48:57;;;;;;;3.72;3.00;;;11.50;99.90;;;;;;5051722;28;20024;-55
2022/09/20 08:51:24;;;;;;;5.68;2.55;;;11.70;99.90;;;;;;5052075;28;20055;-53
2022/09/20 08:53:53;;;;;;;4.63;2.85;;;11.70;99.90;;;;;;5051916;28;20017;-55
2022/09/20 08:56:21;;;;;;;8.27;3.58;;;11.60;99.90;;;;;;5052286;28;20070;-56
2022/09/20 08:58:47;;;;;;;5.05;4.13;;;11.90;99.90;;;;;;5052702;28;20048;-55
2022/09/20 09:01:25;;;;;;;5.28;3.20;;;11.70;99.90;;;;;;5052962;28;20112;-54
2022/09/20 09:03:55;;;;;;;6.72;3.92;;;12.00;99.90;;;;;;5052760;28;20055;-54
2022/09/20 09:06:23;;;;;;;6.75;3.45;;;12.20;99.90;;;;;;5052753;28;20047;-53
2022/09/20 09:08:52;;;;;;;8.68;3.50;;;12.30;99.90;;;;;;5052589;28;20400;-56
2022/09/20 09:11:19;;;;;;;5.95;3.22;;;12.20;99.90;;;;;;5052541;28;20025;-55
2022/09/20 09:14:01;;;;;;;4.75;3.65;;;12.20;99.90;;;;;;5052591;28;20521;-48
2022/09/20 09:16:29;;;;;;;7.00;3.72;;;12.20;99.90;;;;;;5052672;28;20409;-50
2022/09/20 09:18:56;;;;;;;4.18;3.10;;;12.00;99.90;;;;;;5052429;28;20024;-52
2022/09/20 09:21:27;;;;;;;8.00;3.80;;;11.90;99.90;;;;;;5052410;28;20040;-50
2022/09/20 09:24:12;;;;;;;10.02;4.75;;;12.10;99.90;;;;;;5052218;28;20036;-52
2022/09/20 09:26:42;;;;;;;4.32;3.10;;;12.50;99.90;;;;;;5052330;28;20043;-52
2022/09/20 09:29:16;;;;;;;4.25;3.05;;;13.10;99.90;;;;;;5052292;28;20456;-51
2022/09/20 09:31:44;;;;;;;4.93;3.00;;;12.80;99.90;;;;;;5052210;28;20060;-51
2022/09/20 09:34:30;;;;;;;5.05;2.92;;;13.00;99.90;;;;;;5052185;28;20040;-53
2022/09/20 09:36:57;;;;;;;15.82;4.35;;;13.50;99.90;;;;;;5052223;28;20436;-50
2022/09/20 09:39:33;;;;;;;4.50;3.30;;;13.30;99.90;;;;;;5052190;28;20108;-51
2022/09/20 09:41:59;;;;;;;3.97;3.05;;;13.10;99.90;;;;;;5052111;28;20432;-54
2022/09/20 09:44:32;;;;;;;11.23;3.15;;;13.30;99.90;;;;;;5052002;28;20017;-53
2022/09/20 09:46:57;;;;;;;5.07;3.03;;;13.40;99.90;;;;;;5051864;28;20017;-51
2022/09/20 09:49:23;;;;;;;6.53;3.03;;;13.40;99.90;;;;;;5052086;28;20550;-51
2022/09/20 09:52:02;;;;;;;9.55;3.13;;;13.30;99.90;;;;;;5051839;28;20039;-50
2022/09/20 09:54:37;;;;;;;8.95;4.22;;;13.60;99.90;;;;;;5051793;28;20032;-51
2022/09/20 09:57:19;;;;;;;7.25;3.00;;;13.60;99.90;;;;;;5051914;28;20032;-52
2022/09/20 09:59:48;;;;;;;7.82;3.92;;;13.10;99.90;;;;;;5050516;28;20013;-52
2022/09/20 10:02:16;;;;;;;7.70;3.42;;;13.50;99.90;;;;;;5051503;28;20025;-51
2022/09/20 10:04:56;;;;;;;6.10;3.22;;;13.20;99.90;;;;;;5051408;28;20021;-53
2022/09/20 10:07:53;;;;;;;10.95;2.92;;;12.80;99.90;;;;;;5050323;28;20511;-50
2022/09/20 10:10:31;;;;;;;6.50;2.80;;;13.20;99.90;;;;;;5051296;28;20055;-52
2022/09/20 10:13:03;;;;;;;9.13;3.20;;;12.80;99.90;;;;;;5051362;28;20029;-52
2022/09/20 10:16:09;;;;;;;10.75;3.08;;;13.00;99.90;;;;;;5051513;28;20021;-54
2022/09/20 10:19:11;;;;;;;15.88;3.88;;;12.80;99.90;;;;;;5051509;28;20071;-51
2022/09/20 10:22:00;;;;;;;6.03;2.25;;;12.70;99.90;;;;;;5051428;28;20025;-53
2022/09/20 10:24:29;;;;;;;7.03;2.30;;;12.40;99.90;;;;;;5051402;28;20028;-53
2022/09/20 10:27:47;;;;;;;4.28;2.40;;;12.20;99.90;;;;;;5050015;28;20025;-53
2022/09/20 10:30:21;;;;;;;10.23;4.65;;;12.30;99.90;;;;;;5050262;28;20136;-54
2022/09/20 10:33:20;;;;;;;31.40;15.40;;;12.60;99.90;;;;;;5051282;28;20240;-51
2022/09/20 10:35:50;;;;;;;6.72;4.00;;;13.10;99.90;;;;;;5050221;28;20124;-54
2022/09/20 10:38:28;;;;;;;5.20;2.92;;;13.00;99.90;;;;;;5051013;28;20025;-51
2022/09/20 10:44:00;;;;;;;7.25;2.72;;;13.20;99.90;;;;;;5050997;28;20446;-50
2022/09/20 10:46:44;;;;;;;6.80;2.95;;;13.60;99.90;;;;;;5050818;28;20052;-53
2022/09/20 10:49:22;;;;;;;11.75;3.10;;;13.20;99.90;;;;;;5051205;28;20079;-51
2022/09/20 10:52:24;;;;;;;7.70;2.60;;;12.90;99.90;;;;;;5051124;28;20129;-50
2022/09/20 10:55:11;;;;;;;3.13;2.15;;;12.90;99.90;;;;;;5049781;28;20029;-50
2022/09/20 10:57:44;;;;;;;1.67;1.35;;;12.60;99.90;;;;;;5051024;28;20014;-51
2022/09/20 11:00:22;;;;;;;4.07;1.40;;;13.40;99.90;;;;;;5051225;28;20025;-53
2022/09/20 11:02:59;;;;;;;2.47;1.50;;;15.30;99.70;;;;;;5050667;28;20020;-54
2022/09/20 11:05:36;;;;;;;2.22;1.30;;;16.70;96.40;;;;;;5050916;28;20028;-52
2022/09/20 11:08:05;;;;;;;2.50;1.23;;;18.00;92.40;;;;;;5050384;28;20068;-51
2022/09/20 11:10:42;;;;;;;2.33;1.25;;;19.30;91.60;;;;;;5050819;28;20053;-49
2022/09/20 11:13:23;;;;;;;4.55;1.67;;;20.10;88.30;;;;;;5050889;28;20117;-49
2022/09/20 11:16:04;;;;;;;6.70;1.60;;;18.70;91.80;;;;;;5050807;28;20465;-50
2022/09/20 11:18:49;;;;;;;3.85;1.35;;;19.30;89.10;;;;;;5051850;28;20025;-50
2022/09/20 11:21:21;;;;;;;7.13;1.73;;;20.20;86.40;;;;;;5054829;28;20074;-50
2022/09/20 11:24:23;;;;;;;27.33;11.95;;;19.80;87.30;;;;;;5054591;28;20025;-51
2022/09/20 11:26:56;;;;;;;5.82;2.08;;;18.20;90.30;;;;;;5054572;28;20672;-49
2022/09/20 11:29:36;;;;;;;5.38;1.23;;;18.80;88.60;;;;;;5054634;28;20025;-49
2022/09/20 11:32:43;;;;;;;3.17;0.90;;;18.60;90.30;;;;;;5054671;28;20021;-50
2022/09/20 11:35:13;;;;;;;7.82;1.40;;;18.90;89.60;;;;;;5053189;28;20478;-50
2022/09/20 11:37:56;;;;;;;4.60;1.27;;;19.40;91.00;;;;;;5054323;28;20021;-51
2022/09/20 11:40:33;;;;;;;7.20;1.38;;;20.60;85.80;;;;;;5054558;28;20120;-50
2022/09/20 11:43:03;;;;;;;20.10;7.15;;;20.50;85.90;;;;;;5054391;28;20029;-51
2022/09/20 11:45:29;;;;;;;12.73;3.85;;;20.20;83.30;;;;;;5054348;28;20399;-49
2022/09/20 11:48:01;;;;;;;54.17;18.30;;;20.60;83.30;;;;;;5054178;28;20528;-51
2022/09/20 11:50:41;;;;;;;4.13;1.08;;;19.50;82.90;;;;;;5054148;28;20021;-51
2022/09/20 11:53:31;;;;;;;3.83;1.67;;;20.10;82.20;;;;;;5052804;28;20541;-49
2022/09/20 11:56:02;;;;;;;2.20;1.50;;;20.30;79.10;;;;;;5054142;28;20028;-51
2022/09/20 11:58:28;;;;;;;16.90;6.72;;;19.40;83.30;;;;;;5054150;28;20333;-50
2022/09/20 12:00:58;;;;;;;4.38;1.80;;;19.50;81.40;;;;;;5054027;28;20029;-51
2022/09/20 12:03:32;;;;;;;3.63;1.83;;;20.00;85.40;;;;;;5054172;28;20068;-51
2022/09/20 12:06:06;;;;;;;5.28;2.63;;;21.60;80.30;;;;;;5053901;28;20492;-50
2022/09/20 12:08:39;;;;;;;4.20;1.80;;;19.80;82.40;;;;;;5052355;28;20045;-52
2022/09/20 12:11:13;;;;;;;4.70;2.03;;;21.60;82.00;;;;;;5053777;28;20029;-51
2022/09/20 12:13:52;;;;;;;3.25;1.25;;;21.90;78.00;;;;;;5053705;28;20640;-51
2022/09/20 12:16:42;;;;;;;5.43;1.77;;;20.00;79.80;;;;;;5053758;28;20119;-51
2022/09/20 12:19:37;;;;;;;4.28;1.55;;;19.40;83.80;;;;;;5053766;28;20096;-52
2022/09/20 12:22:02;;;;;;;7.60;2.88;;;20.40;82.70;;;;;;5053645;28;20100;-51
2022/09/20 12:24:34;;;;;;;5.65;2.10;;;18.40;83.40;;;;;;5053620;28;20099;-50
2022/09/20 12:27:19;;;;;;;2.88;2.00;;;17.50;86.20;;;;;;5053627;28;20095;-53
2022/09/20 12:30:14;;;;;;;11.55;1.92;;;18.00;88.70;;;;;;5052980;28;20491;-52
2022/09/20 12:32:57;;;;;;;7.07;2.28;;;18.00;86.80;;;;;;5053401;28;20029;-53
2022/09/20 12:35:35;;;;;;;3.53;1.83;;;17.20;86.60;;;;;;5053359;28;20036;-52
2022/09/20 12:38:18;;;;;;;5.40;2.17;;;16.40;88.60;;;;;;5052862;28;20025;-50
2022/09/20 12:40:57;;;;;;;;;;;16.00;89.60;;;;;;5053700;28;20112;-49
2022/09/20 12:43:23;;;;;;;10.73;5.95;;;15.70;91.40;;;;;;5053223;28;19904;-53
2022/09/20 12:45:54;;;;;;;7.53;3.55;;;15.10;93.60;;;;;;5051570;28;20025;-51
2022/09/20 12:48:20;;;;;;;7.63;2.88;;;13.90;94.20;;;;;;5053167;28;20028;-50
2022/09/20 12:54:02;;;;;;;7.65;3.50;;;12.80;99.90;;;;;;5052576;28;20139;-53
2022/09/20 12:56:28;;;;;;;6.85;2.45;;;12.30;99.90;;;;;;5053157;28;20079;-54
2022/09/20 12:58:55;;;;;;;3.95;2.03;;;12.50;99.90;;;;;;5052891;28;20771;-50
2022/09/20 13:01:21;;;;;;;2.03;1.55;;;12.40;99.90;;;;;;5053001;28;20025;-50
2022/09/20 13:03:50;;;;;;;11.25;1.98;;;12.50;99.90;;;;;;5052674;28;20418;-51
2022/09/20 13:06:18;;;;;;;6.18;3.35;;;12.20;99.90;;;;;;5052882;28;20112;-51
2022/09/20 13:09:00;;;;;;;8.30;3.35;;;12.30;99.90;;;;;;5052440;28;20123;-50
2022/09/20 13:11:43;;;;;;;4.85;2.97;;;12.20;99.90;;;;;;5051384;28;20615;-50
2022/09/20 13:14:13;;;;;;;22.63;10.30;;;12.20;99.90;;;;;;5052683;28;20029;-50
2022/09/20 13:16:52;;;;;;;24.38;9.27;;;11.70;99.90;;;;;;5052070;28;20651;-50
2022/09/20 13:19:43;;;;;;;11.82;5.65;;;12.20;99.90;;;;;;5052527;28;20417;-51
2022/09/20 13:22:40;;;;;;;6.13;2.65;;;12.90;99.90;;;;;;5051904;28;20045;-50
2022/09/20 13:25:12;;;;;;;3.92;2.97;;;13.30;99.90;;;;;;5051209;28;20017;-50
2022/09/20 13:27:50;;;;;;;3.63;2.10;;;12.80;99.90;;;;;;5052046;28;20017;-49
2022/09/20 13:30:16;;;;;;;2.70;1.92;;;12.70;99.90;;;;;;5052289;28;20055;-51
2022/09/20 13:32:42;;;;;;;9.40;2.25;;;12.50;99.90;;;;;;5052172;28;20017;-50
2022/09/20 13:35:18;;;;;;;13.05;5.07;;;12.20;99.90;;;;;;5053068;28;20048;-52
2022/09/20 13:37:43;;;;;;;5.68;3.58;;;11.80;99.90;;;;;;5071727;28;20029;-53
2022/09/20 13:40:19;;;;;;;8.13;3.60;;;11.80;99.90;;;;;;5067435;28;20055;-53
2022/09/20 13:42:47;;;;;;;8.98;5.85;;;11.70;99.90;;;;;;5060782;28;20434;-50
2022/09/20 13:45:14;;;;;;;4.68;3.58;;;11.70;99.90;;;;;;5051820;28;20071;-50
2022/09/20 13:47:48;;;;;;;12.18;5.85;;;11.60;99.90;;;;;;5052007;28;20071;-50
2022/09/20 13:50:33;;;;;;;8.05;2.47;;;11.50;99.90;;;;;;5051792;28;20104;-52
2022/09/20 13:53:01;;;;;;;11.90;2.60;;;11.50;99.90;;;;;;5051961;28;20071;-51
2022/09/20 13:55:31;;;;;;;2.63;2.42;;;11.40;99.90;;;;;;5051773;28;20035;-50
2022/09/20 13:58:08;;;;;;;3.15;2.40;;;11.20;99.90;;;;;;5051744;28;20021;-52
2022/09/20 14:00:36;;;;;;;3.25;2.40;;;11.20;99.90;;;;;;5051454;28;20055;-52
2022/09/20 14:03:03;;;;;;;3.97;2.90;;;11.10;99.90;;;;;;5051670;28;20517;-49